createdAt,value
2018-09-11T00:02:26.180Z,13.33
2018-09-11T00:04:54.872Z,14.03
2018-09-11T00:07:23.468Z,13.80
2018-09-11T00:09:52.102Z,13.47
2018-09-11T00:12:20.719Z,13.63
2018-09-11T00:14:49.336Z,14.47
2018-09-11T00:17:18.124Z,15.07
2018-09-11T00:19:46.736Z,14.90
2018-09-11T00:22:15.412Z,11.60
2018-09-11T00:24:43.995Z,12.90
2018-09-11T00:27:12.697Z,14.13
2018-09-11T00:29:41.305Z,14.97
2018-09-11T00:32:09.908Z,13.23
2018-09-11T00:34:38.820Z,16.20
2018-09-11T00:37:07.771Z,16.30
2018-09-11T00:39:36.389Z,13.40
2018-09-11T00:42:05.024Z,14.87
2018-09-11T00:44:33.616Z,14.00
2018-09-11T00:47:02.520Z,15.93
2018-09-11T00:49:31.144Z,16.10
2018-09-11T00:51:59.831Z,12.77
2018-09-11T00:54:28.670Z,13.33
2018-09-11T00:56:57.261Z,15.33
2018-09-11T00:59:25.888Z,14.60
2018-09-11T01:01:54.500Z,14.13
2018-09-11T01:04:23.132Z,13.37
2018-09-11T01:06:51.753Z,13.70
2018-09-11T01:09:20.411Z,14.23
2018-09-11T01:11:49.051Z,14.00
2018-09-11T01:14:17.641Z,12.90
2018-09-11T01:16:46.384Z,12.60
2018-09-11T01:19:15.111Z,14.23
2018-09-11T01:21:43.749Z,14.33
2018-09-11T01:24:12.557Z,15.57
2018-09-11T01:26:41.642Z,14.80
2018-09-11T01:29:10.692Z,14.40
2018-09-11T01:31:39.286Z,11.97
2018-09-11T01:34:08.552Z,13.60
2018-09-11T01:36:37.788Z,12.90
2018-09-11T01:39:08.837Z,15.23
2018-09-11T01:41:38.141Z,13.17
2018-09-11T01:44:07.036Z,13.37
2018-09-11T01:46:35.900Z,15.63
2018-09-11T01:49:04.721Z,15.07
2018-09-11T01:51:33.613Z,15.03
2018-09-11T01:54:02.284Z,13.10
2018-09-11T01:56:30.896Z,14.43
2018-09-11T01:59:00.076Z,14.07
2018-09-11T02:01:28.668Z,14.87
2018-09-11T02:03:57.289Z,12.13
2018-09-11T02:06:28.021Z,14.97
2018-09-11T02:08:57.102Z,12.60
2018-09-11T02:11:25.696Z,17.53
2018-09-11T02:13:54.284Z,13.03
2018-09-11T02:16:23.018Z,15.13
2018-09-11T02:18:51.797Z,15.57
2018-09-11T02:21:20.396Z,20.00
2018-09-11T02:23:49.015Z,14.03
2018-09-11T02:26:17.634Z,17.40
2018-09-11T02:28:46.268Z,12.90
2018-09-11T02:31:14.865Z,11.27
2018-09-11T02:33:43.480Z,13.33
2018-09-11T02:36:12.077Z,13.00
2018-09-11T02:38:40.674Z,14.53
2018-09-11T02:41:09.298Z,11.33
2018-09-11T02:43:37.892Z,13.50
2018-09-11T02:46:06.501Z,11.03
2018-09-11T02:48:35.080Z,12.00
2018-09-11T02:51:03.680Z,12.83
2018-09-11T02:53:32.366Z,10.50
2018-09-11T02:56:00.948Z,12.23
2018-09-11T02:58:29.556Z,13.60
2018-09-11T03:00:58.196Z,11.67
2018-09-11T03:03:26.768Z,13.17
2018-09-11T03:05:55.845Z,12.00
2018-09-11T03:08:24.445Z,14.00
2018-09-11T03:10:53.072Z,11.40
2018-09-11T03:13:21.664Z,14.30
2018-09-11T03:15:50.243Z,11.80
2018-09-11T03:18:18.868Z,12.47
2018-09-11T03:20:47.450Z,12.73
2018-09-11T03:23:16.084Z,10.20
2018-09-11T03:25:44.688Z,15.50
2018-09-11T03:28:13.268Z,11.97
2018-09-11T03:30:41.915Z,11.20
2018-09-11T03:33:10.508Z,11.80
2018-09-11T03:35:39.085Z,12.20
2018-09-11T03:38:07.710Z,13.40
2018-09-11T03:40:36.352Z,11.60
2018-09-11T03:43:05.079Z,13.67
2018-09-11T03:45:33.786Z,13.87
2018-09-11T03:48:02.396Z,12.63
2018-09-11T03:50:31.012Z,12.00
2018-09-11T03:52:59.605Z,12.50
2018-09-11T03:55:28.219Z,12.83
2018-09-11T03:57:56.830Z,12.60
2018-09-11T04:00:25.519Z,11.67
2018-09-11T04:02:54.129Z,14.33
2018-09-11T04:05:23.196Z,13.00
2018-09-11T04:07:51.969Z,11.93
2018-09-11T04:10:20.551Z,12.33
2018-09-11T04:12:49.124Z,12.73
2018-09-11T04:15:17.705Z,13.27
2018-09-11T04:17:46.292Z,12.47
2018-09-11T04:20:14.938Z,13.90
2018-09-11T04:22:43.561Z,13.10
2018-09-11T04:25:12.189Z,19.40
2018-09-11T04:27:40.800Z,17.37
2018-09-11T04:30:09.695Z,16.97
2018-09-11T04:32:38.271Z,16.03
2018-09-11T04:35:07.312Z,19.67
2018-09-11T04:37:36.004Z,13.90
2018-09-11T04:40:04.733Z,13.77
2018-09-11T04:42:33.380Z,15.27
2018-09-11T04:45:01.976Z,13.67
2018-09-11T04:47:30.561Z,13.87
2018-09-11T04:49:59.190Z,12.13
2018-09-11T04:52:27.935Z,13.33
2018-09-11T04:54:56.572Z,13.80
2018-09-11T04:57:25.172Z,13.80
2018-09-11T04:59:53.755Z,14.03
2018-09-11T05:02:22.448Z,12.17
2018-09-11T05:04:51.045Z,11.87
2018-09-11T05:07:19.670Z,14.40
2018-09-11T05:09:48.275Z,13.37
2018-09-11T05:12:16.871Z,10.07
2018-09-11T05:14:45.490Z,13.53
2018-09-11T05:17:14.118Z,9.17
2018-09-11T05:19:42.700Z,9.87
2018-09-11T05:22:11.303Z,9.57
2018-09-11T05:24:39.996Z,9.83
2018-09-11T05:27:08.714Z,11.77
2018-09-11T05:29:37.379Z,9.83
2018-09-11T05:32:06.044Z,10.60
2018-09-11T05:34:34.684Z,12.53
2018-09-11T05:37:03.282Z,9.53
2018-09-11T05:39:31.912Z,11.37
2018-09-11T05:42:00.529Z,11.60
2018-09-11T05:44:29.162Z,11.13
2018-09-11T05:46:57.770Z,12.17
2018-09-11T05:49:26.362Z,12.30
2018-09-11T05:51:54.991Z,11.47
2018-09-11T05:54:23.659Z,10.67
2018-09-11T05:56:52.262Z,10.63
2018-09-11T05:59:20.841Z,11.07
2018-09-11T06:01:49.688Z,10.13
2018-09-11T06:04:18.356Z,11.93
2018-09-11T06:06:46.957Z,14.73
2018-09-11T06:09:15.540Z,13.30
2018-09-11T06:11:44.154Z,12.10
2018-09-11T06:14:12.752Z,12.07
2018-09-11T06:16:41.491Z,12.57
2018-09-11T06:19:10.107Z,9.93
2018-09-11T06:21:38.688Z,9.87
2018-09-11T06:24:07.329Z,10.40
2018-09-11T06:26:35.937Z,12.60
2018-09-11T06:29:04.623Z,10.00
2018-09-11T06:31:33.375Z,12.53
2018-09-11T06:34:02.003Z,11.00
2018-09-11T06:36:30.594Z,10.80
2018-09-11T06:38:59.193Z,9.73
2018-09-11T06:41:27.828Z,10.73
2018-09-11T06:43:56.778Z,9.43
2018-09-11T06:46:25.687Z,11.33
2018-09-11T06:48:54.336Z,9.47
2018-09-11T06:51:22.949Z,11.27
2018-09-11T06:53:51.603Z,10.77
2018-09-11T06:56:20.232Z,8.80
2018-09-11T06:58:48.891Z,11.73
2018-09-11T07:01:17.697Z,10.30
2018-09-11T07:03:46.308Z,9.27
2018-09-11T07:06:15.217Z,10.17
2018-09-11T07:08:43.820Z,10.53
2018-09-11T07:11:12.510Z,8.70
2018-09-11T07:13:41.196Z,7.67
2018-09-11T07:16:09.814Z,8.77
2018-09-11T07:18:38.444Z,8.87
2018-09-11T07:21:07.065Z,10.97
2018-09-11T07:23:35.671Z,11.53
2018-09-11T07:26:04.330Z,9.27
2018-09-11T07:28:33.066Z,12.93
2018-09-11T07:31:01.744Z,8.50
2018-09-11T07:33:30.335Z,11.63
2018-09-11T07:35:58.965Z,7.77
2018-09-11T07:38:27.710Z,9.40
2018-09-11T07:40:56.344Z,12.10
2018-09-11T07:43:24.952Z,8.10
2018-09-11T07:45:53.585Z,8.50
2018-09-11T07:48:22.360Z,8.20
2018-09-11T07:50:51.544Z,8.90
2018-09-11T07:53:20.729Z,9.30
2018-09-11T07:55:50.204Z,8.73
2018-09-11T07:58:19.673Z,10.05
2018-09-11T08:00:49.438Z,11.22
2018-09-11T08:03:18.646Z,12.05
2018-09-11T08:05:47.831Z,11.18
2018-09-11T08:08:17.027Z,8.13
2018-09-11T08:10:46.496Z,9.33
2018-09-11T08:13:15.782Z,8.83
2018-09-11T08:15:45.121Z,8.10
2018-09-11T08:18:14.308Z,9.20
2018-09-11T08:20:43.514Z,10.43
2018-09-11T08:23:12.712Z,6.65
2018-09-11T08:25:41.962Z,9.58
2018-09-11T08:28:11.231Z,8.75
2018-09-11T08:30:40.483Z,9.05
2018-09-11T08:33:09.693Z,10.10
2018-09-11T08:35:38.896Z,7.70
2018-09-11T08:38:08.204Z,6.90
2018-09-11T08:40:37.395Z,7.87
2018-09-11T08:43:06.589Z,8.03
2018-09-11T08:45:35.801Z,8.48
2018-09-11T08:48:05.036Z,7.83
2018-09-11T08:50:34.274Z,7.97
2018-09-11T08:53:03.457Z,6.37
2018-09-11T08:55:32.684Z,7.47
2018-09-11T08:58:01.982Z,10.72
2018-09-11T09:00:31.281Z,6.62
2018-09-11T09:03:00.505Z,6.25
2018-09-11T09:05:29.733Z,6.95
2018-09-11T09:07:58.924Z,7.55
2018-09-11T09:10:28.106Z,7.20
2018-09-11T09:12:57.352Z,6.53
2018-09-11T09:15:26.626Z,5.33
2018-09-11T09:17:56.050Z,6.62
2018-09-11T09:20:25.273Z,7.65
2018-09-11T09:22:54.522Z,6.55
2018-09-11T09:25:23.726Z,6.53
2018-09-11T09:27:52.946Z,7.30
2018-09-11T09:30:22.124Z,7.00
2018-09-11T09:32:51.326Z,7.85
2018-09-11T09:35:20.537Z,5.90
2018-09-11T09:37:49.771Z,5.35
2018-09-11T09:40:19.039Z,6.53
2018-09-11T09:42:48.305Z,5.03
2018-09-11T09:45:17.526Z,5.03
2018-09-11T09:47:46.890Z,6.58
2018-09-11T09:50:16.081Z,4.10
2018-09-11T09:52:45.340Z,4.35
2018-09-11T09:55:14.564Z,8.93
2018-09-11T09:57:43.800Z,3.15
2018-09-11T10:00:15.563Z,4.62
2018-09-11T10:02:44.756Z,6.78
2018-09-11T10:05:13.921Z,5.90
2018-09-11T10:07:44.833Z,4.50
2018-09-11T10:10:14.069Z,5.30
2018-09-11T10:12:43.237Z,6.62
2018-09-11T10:15:12.467Z,5.25
2018-09-11T10:17:41.739Z,5.97
2018-09-11T10:20:11.107Z,5.97
2018-09-11T10:22:40.409Z,5.40
2018-09-11T10:25:09.937Z,6.75
2018-09-11T10:27:39.166Z,6.72
2018-09-11T10:30:08.921Z,7.55
2018-09-11T10:32:41.040Z,5.08
2018-09-11T10:35:10.281Z,6.40
2018-09-11T10:37:39.487Z,7.40
2018-09-11T10:40:08.708Z,6.12
2018-09-11T10:42:37.921Z,7.05
2018-09-11T10:45:07.223Z,6.58
2018-09-11T10:47:36.596Z,7.15
2018-09-11T10:50:05.858Z,6.55
2018-09-11T10:52:35.044Z,7.80
2018-09-11T10:55:04.562Z,6.40
2018-09-11T10:57:34.179Z,5.85
2018-09-11T11:00:03.648Z,7.17
2018-09-11T11:02:32.910Z,5.58
2018-09-11T11:05:04.767Z,5.72
2018-09-11T11:07:34.134Z,6.37
2018-09-11T11:10:04.139Z,6.08
2018-09-11T11:12:33.547Z,7.17
2018-09-11T11:15:03.034Z,5.08
2018-09-11T11:17:32.502Z,6.67
2018-09-11T11:20:01.890Z,7.08
2018-09-11T11:22:31.279Z,4.55
2018-09-11T11:25:00.636Z,5.65
2018-09-11T11:27:30.001Z,5.80
2018-09-11T11:29:59.290Z,5.47
2018-09-11T11:32:29.172Z,4.92
2018-09-11T11:34:58.493Z,4.70
2018-09-11T11:37:30.656Z,7.85
2018-09-11T11:39:59.945Z,6.20
2018-09-11T11:42:29.436Z,6.72
2018-09-11T11:44:58.913Z,3.60
2018-09-11T11:47:28.294Z,4.08
2018-09-11T11:49:57.579Z,5.58
2018-09-11T11:52:26.868Z,5.92
2018-09-11T11:54:56.167Z,3.75
2018-09-11T11:57:25.681Z,6.37
2018-09-11T11:59:54.987Z,6.37
2018-09-11T12:02:24.366Z,6.00
2018-09-11T12:04:54.343Z,4.85
2018-09-11T12:07:23.647Z,6.28
2018-09-11T12:09:53.019Z,5.08
2018-09-11T12:12:22.377Z,3.92
2018-09-11T12:14:51.932Z,4.58
2018-09-11T12:17:21.196Z,7.58
2018-09-11T12:19:50.502Z,6.00
2018-09-11T12:22:19.798Z,7.22
2018-09-11T12:24:49.180Z,7.95
2018-09-11T12:27:18.484Z,7.75
2018-09-11T12:29:47.837Z,4.37
2018-09-11T12:32:17.163Z,7.37
2018-09-11T12:34:46.478Z,7.72
2018-09-11T12:37:16.999Z,5.78
2018-09-11T12:39:46.326Z,5.67
2018-09-11T12:42:15.600Z,10.50
2018-09-11T12:44:44.871Z,6.47
2018-09-11T12:47:14.772Z,8.20
2018-09-11T12:49:44.072Z,6.12
2018-09-11T12:52:13.356Z,4.80
2018-09-11T12:54:42.645Z,7.35
2018-09-11T12:57:11.973Z,8.00
2018-09-11T12:59:41.344Z,7.47
2018-09-11T13:02:10.986Z,6.20
2018-09-11T13:04:40.328Z,8.25
2018-09-11T13:07:09.600Z,8.93
2018-09-11T13:09:40.305Z,6.85
2018-09-11T13:12:09.637Z,5.22
2018-09-11T13:14:38.867Z,7.50
2018-09-11T13:17:08.196Z,6.03
2018-09-11T13:19:37.548Z,8.13
2018-09-11T13:22:06.841Z,5.28
2018-09-11T13:24:36.200Z,3.98
2018-09-11T13:27:05.447Z,6.40
2018-09-11T13:29:34.624Z,6.87
2018-09-11T13:32:03.864Z,8.38
2018-09-11T13:34:33.088Z,8.58
2018-09-11T13:37:02.325Z,8.53
2018-09-11T13:39:31.528Z,6.47
2018-09-11T13:42:00.765Z,7.92
2018-09-11T13:44:30.001Z,5.30
2018-09-11T13:46:59.312Z,5.45
2018-09-11T13:49:28.775Z,6.58
2018-09-11T13:51:57.981Z,6.85
2018-09-11T13:54:27.235Z,5.87
2018-09-11T13:56:56.444Z,8.60
2018-09-11T13:59:25.909Z,5.08
2018-09-11T14:01:55.857Z,6.08
2018-09-11T14:04:25.094Z,6.90
2018-09-11T14:06:54.336Z,6.65
2018-09-11T14:09:23.531Z,11.25
2018-09-11T14:11:52.725Z,6.75
2018-09-11T14:14:21.964Z,5.47
2018-09-11T14:16:51.178Z,7.10
2018-09-11T14:19:20.536Z,5.83
2018-09-11T14:21:50.187Z,4.87
2018-09-11T14:24:19.439Z,7.35
2018-09-11T14:26:48.776Z,5.58
2018-09-11T14:29:19.140Z,6.87
2018-09-11T14:31:48.507Z,7.30
2018-09-11T14:34:17.759Z,5.30
2018-09-11T14:36:48.196Z,6.40
2018-09-11T14:39:17.469Z,6.30
2018-09-11T14:41:46.716Z,7.25
2018-09-11T14:44:15.911Z,5.08
2018-09-11T14:46:45.244Z,5.65
2018-09-11T14:49:14.591Z,7.17
2018-09-11T14:51:43.889Z,5.87
2018-09-11T14:54:13.096Z,7.67
2018-09-11T14:56:42.573Z,5.90
2018-09-11T14:59:11.855Z,5.80
2018-09-11T15:01:41.246Z,7.00
2018-09-11T15:04:11.263Z,5.80
2018-09-11T15:06:40.670Z,5.78
2018-09-11T15:09:10.478Z,5.00
2018-09-11T15:11:40.353Z,6.00
2018-09-11T15:14:09.879Z,6.72
2018-09-11T15:16:39.149Z,4.20
2018-09-11T15:19:08.412Z,7.12
2018-09-11T15:21:39.433Z,8.30
2018-09-11T15:24:08.997Z,7.62
2018-09-11T15:26:38.213Z,5.78
2018-09-11T15:29:07.495Z,7.12
2018-09-11T15:31:37.026Z,6.42
2018-09-11T15:34:06.425Z,6.85
2018-09-11T15:36:35.621Z,9.18
2018-09-11T15:39:05.510Z,4.62
2018-09-11T15:41:36.339Z,9.18
2018-09-11T15:44:05.702Z,6.10
2018-09-11T15:46:35.104Z,6.92
2018-09-11T15:49:04.328Z,5.90
2018-09-11T15:51:33.520Z,5.42
2018-09-11T15:54:02.762Z,7.62
2018-09-11T15:56:31.966Z,5.55
2018-09-11T15:59:01.162Z,12.45
2018-09-11T16:01:30.337Z,7.17
2018-09-11T16:03:59.549Z,6.45
2018-09-11T16:06:28.771Z,6.05
2018-09-11T16:08:57.965Z,7.20
2018-09-11T16:11:27.189Z,9.45
2018-09-11T16:13:57.328Z,11.88
2018-09-11T16:16:26.606Z,12.78
2018-09-11T16:18:55.852Z,22.07
2018-09-11T16:21:25.068Z,17.73
2018-09-11T16:23:54.304Z,10.85
2018-09-11T16:26:23.518Z,12.75
2018-09-11T16:28:52.758Z,7.35
2018-09-11T16:31:21.960Z,10.28
2018-09-11T16:33:51.151Z,7.78
2018-09-11T16:36:20.328Z,8.23
2018-09-11T16:38:49.497Z,5.78
2018-09-11T16:41:18.720Z,5.90
2018-09-11T16:43:47.929Z,7.20
2018-09-11T16:46:17.120Z,6.53
2018-09-11T16:48:46.381Z,6.28
2018-09-11T16:51:15.585Z,10.60
2018-09-11T16:53:44.822Z,9.13
2018-09-11T16:56:14.037Z,6.30
2018-09-11T16:58:43.248Z,6.90
2018-09-11T17:01:12.447Z,6.00
2018-09-11T17:03:41.663Z,5.72
2018-09-11T17:06:11.324Z,7.70
2018-09-11T17:08:41.539Z,9.10
2018-09-11T17:11:11.013Z,7.60
2018-09-11T17:13:40.224Z,9.25
2018-09-11T17:16:09.798Z,8.03
2018-09-11T17:18:39.190Z,10.18
2018-09-11T17:21:08.435Z,10.90
2018-09-11T17:23:37.639Z,8.55
2018-09-11T17:26:06.867Z,13.90
2018-09-11T17:28:36.124Z,8.95
2018-09-11T17:31:05.467Z,9.25
2018-09-11T17:33:34.723Z,10.03
2018-09-11T17:36:03.945Z,9.58
2018-09-11T17:38:33.229Z,9.30
2018-09-11T17:41:02.418Z,9.53
2018-09-11T17:43:31.734Z,7.60
2018-09-11T17:46:00.989Z,9.55
2018-09-11T17:48:30.319Z,8.38
2018-09-11T17:50:59.687Z,8.35
2018-09-11T17:53:29.020Z,6.97
2018-09-11T17:55:58.297Z,8.45
2018-09-11T17:58:27.456Z,6.37
2018-09-11T18:00:56.642Z,7.37
2018-09-11T18:03:25.876Z,7.00
2018-09-11T18:05:55.081Z,5.87
2018-09-11T18:08:24.326Z,6.62
2018-09-11T18:10:53.610Z,9.03
2018-09-11T18:13:22.932Z,10.00
2018-09-11T18:15:52.196Z,7.15
2018-09-11T18:18:21.412Z,7.10
2018-09-11T18:20:51.362Z,8.63
2018-09-11T18:23:20.533Z,8.85
2018-09-11T18:25:50.485Z,7.83
2018-09-11T18:28:19.709Z,11.15
2018-09-11T18:30:48.932Z,10.35
2018-09-11T18:33:18.148Z,7.60
2018-09-11T18:35:47.353Z,6.60
2018-09-11T18:38:16.539Z,7.58
2018-09-11T18:40:45.749Z,7.95
2018-09-11T18:43:14.896Z,7.08
2018-09-11T18:45:44.154Z,7.33
2018-09-11T18:48:13.343Z,10.18
2018-09-11T18:50:42.530Z,8.00
2018-09-11T18:53:11.720Z,8.45
2018-09-11T18:55:40.933Z,8.03
2018-09-11T18:58:10.171Z,8.58
2018-09-11T19:00:39.493Z,7.83
2018-09-11T19:03:08.694Z,7.60
2018-09-11T19:05:37.865Z,8.95
2018-09-11T19:08:07.169Z,8.20
2018-09-11T19:10:36.352Z,9.43
2018-09-11T19:13:05.560Z,7.58
2018-09-11T19:15:34.877Z,8.00
2018-09-11T19:18:04.108Z,9.88
2018-09-11T19:20:33.285Z,6.92
2018-09-11T19:23:02.488Z,8.35
2018-09-11T19:25:36.177Z,10.28
2018-09-11T19:28:07.504Z,8.43
2018-09-11T19:30:36.394Z,6.90
2018-09-11T19:33:07.987Z,8.15
2018-09-11T19:35:41.737Z,8.90
2018-09-11T19:38:17.708Z,8.03
2018-09-11T19:40:52.109Z,8.05
2018-09-11T19:43:23.558Z,13.80
2018-09-11T19:45:52.896Z,8.33
2018-09-11T19:48:21.512Z,11.50
2018-09-11T19:50:50.096Z,11.63
2018-09-11T19:53:37.484Z,10.67
2018-09-11T19:56:15.951Z,9.97
2018-09-11T19:58:48.878Z,9.00
2018-09-11T20:01:30.289Z,8.87
2018-09-11T20:04:07.181Z,8.80
2018-09-11T20:06:38.943Z,8.07
2018-09-11T20:09:11.166Z,11.17
2018-09-11T20:11:40.016Z,11.43
2018-09-11T20:14:08.616Z,9.47
2018-09-11T20:16:37.294Z,10.37
2018-09-11T20:19:07.266Z,8.63
2018-09-11T20:21:35.885Z,10.97
2018-09-11T20:24:04.776Z,13.33
2018-09-11T20:26:37.109Z,13.33
2018-09-11T20:29:09.808Z,12.17
2018-09-11T20:31:38.696Z,15.30
2018-09-11T20:34:07.348Z,11.90
2018-09-11T20:36:36.500Z,13.63
2018-09-11T20:39:08.561Z,14.50
2018-09-11T20:41:37.380Z,11.80
2018-09-11T20:44:06.008Z,13.47
2018-09-11T20:46:34.618Z,11.07
2018-09-11T20:49:04.210Z,15.60
2018-09-11T20:51:32.845Z,12.70
2018-09-11T20:54:01.603Z,14.00
2018-09-11T20:56:30.392Z,10.70
2018-09-11T20:58:59.091Z,12.93
2018-09-11T21:01:27.706Z,13.07
2018-09-11T21:03:56.808Z,12.70
2018-09-11T21:06:25.477Z,16.13
2018-09-11T21:08:54.102Z,13.63
2018-09-11T21:11:22.737Z,13.53
2018-09-11T21:13:51.331Z,12.60
2018-09-11T21:16:19.973Z,14.17
2018-09-11T21:18:48.643Z,15.63
2018-09-11T21:21:17.232Z,15.50
2018-09-11T21:23:45.838Z,14.77
2018-09-11T21:26:14.497Z,15.00
2018-09-11T21:28:43.113Z,16.00
2018-09-11T21:31:11.768Z,16.90
2018-09-11T21:33:40.365Z,17.43
2018-09-11T21:36:08.976Z,17.20
2018-09-11T21:38:37.633Z,18.73
2018-09-11T21:41:06.553Z,19.27
2018-09-11T21:43:35.265Z,22.50
2018-09-11T21:46:03.940Z,23.70
2018-09-11T21:48:32.732Z,21.43
2018-09-11T21:51:01.344Z,22.07
2018-09-11T21:53:29.968Z,20.13
2018-09-11T21:56:00.788Z,20.53
2018-09-11T21:58:29.468Z,22.07
2018-09-11T22:01:02.653Z,18.40
2018-09-11T22:03:31.422Z,18.67
2018-09-11T22:06:00.080Z,21.97
2018-09-11T22:08:28.696Z,21.77
2018-09-11T22:10:57.301Z,19.43
2018-09-11T22:13:26.290Z,20.20
2018-09-11T22:15:55.236Z,15.40
2018-09-11T22:18:23.843Z,19.77
2018-09-11T22:20:52.551Z,18.67
2018-09-11T22:23:21.198Z,23.07
2018-09-11T22:25:49.860Z,21.70
2018-09-11T22:28:18.748Z,19.87
2018-09-11T22:30:47.418Z,18.50
2018-09-11T22:33:16.013Z,18.03
2018-09-11T22:35:44.684Z,16.07
2018-09-11T22:38:13.312Z,17.43
2018-09-11T22:40:41.977Z,16.60
2018-09-11T22:43:10.778Z,18.70
2018-09-11T22:45:39.584Z,17.13
2018-09-11T22:48:08.224Z,20.17
2018-09-11T22:50:36.984Z,18.17
2018-09-11T22:53:05.713Z,19.13
2018-09-11T22:55:34.362Z,20.90
2018-09-11T22:58:03.006Z,17.97
2018-09-11T23:00:31.595Z,17.60
2018-09-11T23:03:00.716Z,16.47
2018-09-11T23:05:29.325Z,17.50
2018-09-11T23:07:57.968Z,17.37
2018-09-11T23:10:26.579Z,18.53
2018-09-11T23:12:55.318Z,17.83
2018-09-11T23:15:24.060Z,19.63
2018-09-11T23:17:52.632Z,18.63
2018-09-11T23:20:21.429Z,18.87
2018-09-11T23:22:50.119Z,17.37
2018-09-11T23:25:19.236Z,19.53
2018-09-11T23:27:47.873Z,18.90
2018-09-11T23:30:16.584Z,19.70
2018-09-11T23:32:45.184Z,19.50
2018-09-11T23:35:13.821Z,19.80
2018-09-11T23:37:42.506Z,19.27
2018-09-11T23:40:11.212Z,20.10
2018-09-11T23:42:39.909Z,20.23
2018-09-11T23:45:08.506Z,18.87
2018-09-11T23:47:37.116Z,18.13
2018-09-11T23:50:06.165Z,19.53
2018-09-11T23:52:35.308Z,19.57
2018-09-11T23:55:04.259Z,19.47
2018-09-11T23:57:33.084Z,18.67
